SCC: Homestead: GS qualifying times

Pos Num Class Team Time Gap To 1st Speed --- --- ----- ------------------------------ ---------- ------- ------- ------- 1. 4 GS Blackforest Motorsports 1:28.800 93.243 2. 5...

Pos Num Class Team                                 Time     Gap  To 1st   Speed
--- --- ----- ------------------------------ ---------- ------- ------- -------
 1.   4 GS    Blackforest Motorsports          1:28.800                  93.243
 2.   5 GS    Blackforest Motorsports          1:28.979   0.179   0.179  93.056
 3.  79 GS    Kinetic Motorsports              1:29.284   0.305   0.484  92.738
 4.  55 GS    Hyper Sport                      1:29.314   0.030   0.514  92.707
 5.  17 GS    Team Centurion                   1:29.483   0.169   0.683  92.532
 6.  99 GS    Automatic Racing                 1:29.516   0.033   0.716  92.497
 7.  97 GS    Turner Motorsport                1:29.641   0.125   0.841  92.368
 8.  96 GS    Turner Motorsport                1:29.792   0.151   0.992  92.213
 9.  83 GS    BGB Motorsports                  1:30.097   0.305   1.297  91.901
10.  44 GS    ASC Motorsports                  1:30.171   0.074   1.371  91.826
11.  87 GS    LNS Motorsport                   1:30.195   0.024   1.395  91.801
12.  37 GS    JBS Racing                       1:30.198   0.003   1.398  91.798
13. 156 GS    Hyper Sport                      1:30.210   0.012   1.410  91.786
14. 154 GS    Jim Click Racing                 1:30.237   0.027   1.437  91.758
15.  25 GS    Fiorano/C-MAX Racing             1:30.304   0.067   1.504  91.690
16.  09 GS    Automatic Racing                 1:30.336   0.032   1.536  91.658
17.  41 GS    TRG                              1:30.395   0.059   1.595  91.598
18.   6 GS    Blackforest Motorsports          1:30.640   0.245   1.840  91.350
19. 150 GS    Jim Click Racing                 1:30.685   0.045   1.885  91.305
20.  88 GS    LNS Motorsport                   1:30.695   0.010   1.895  91.295
21.  49 GS    Marcus Motorsports               1:30.733   0.038   1.933  91.257
22.  54 GS    Hyper Sport                      1:30.878   0.145   2.078  91.111
23.  39 GS    TRG                              1:30.908   0.030   2.108  91.081
24.  59 GS    Rehagen Racing                   1:30.973   0.065   2.173  91.016
25.  90 GS    Automatic Racing                 1:31.320   0.347   2.520  90.670
26. 137 GS    JBS Motorsports                  1:31.325   0.005   2.525  90.665
27.  91 GS    Automatic Racing                 1:31.351   0.026   2.551  90.639
28.  38 GS    BGB Motorsports                  1:31.684   0.333   2.884  90.310
29.  28 GS    Fall-Line Motorsports            1:31.850   0.166   3.050  90.147
30.  60 GS    Horsepower Ranch                 1:31.929   0.079   3.129  90.070
31.  21 GS    Bodymotion Racing                1:32.350   0.421   3.550  89.659
32.  77 GS    Blackforest Motorsports          1:32.449   0.099   3.649  89.563
33.  43 GS    ASC Motorsports                  1:33.118   0.669   4.318  88.919
34.  40 GS    TRG                              1:33.715   0.597   4.915  88.353
35.  18 GS    Race Prep Motorsports            1:34.215   0.500   5.415  87.884
36.  50 GS    Eastern Competition Promotorsp   1:39.685   5.470  10.885  83.062
37.  10 GS    Spirit of Daytona Racing         3:41.210 2:01.52 2:12.41  37.430
38.  89 GS    LNS Motorsport                    No Time
39.   9 GS    Spirit of Daytona Racing          No Time
40.  20 GS    Horsepower Ranch                  No Time
41.  26 GS    Fiorano/C-MAX Racing              No Time

Be part of something big

Write a comment
Show comments
About this article
Series Grand-Am
Drivers Jim Click
Teams Kinetic Motorsports , Rehagen Racing , Turner Motorsport , Automatic Racing , Fall-Line Motorsports , Bodymotion Racing